createdAt,value
2023-05-11T00:01:48.645Z,96145.53
2023-05-11T00:04:15.343Z,96162.91
2023-05-11T00:06:42.122Z,96173.94
2023-05-11T00:09:09.629Z,96166.38
2023-05-11T00:11:36.362Z,96178.66
2023-05-11T00:14:03.529Z,96186.06
2023-05-11T00:16:36.157Z,96180.09
2023-05-11T00:19:03.009Z,96196.88
2023-05-11T00:21:30.652Z,96195.41
2023-05-11T00:23:57.343Z,96199.81
2023-05-11T00:26:24.028Z,96202.22
2023-05-11T00:28:50.717Z,96205.13
2023-05-11T00:31:17.322Z,96204.50
2023-05-11T00:33:43.904Z,96194.06
2023-05-11T00:36:10.495Z,96191.22
2023-05-11T00:38:40.845Z,96195.25
2023-05-11T00:41:08.217Z,96185.94
2023-05-11T00:43:39.468Z,96202.41
2023-05-11T00:46:06.493Z,96200.84
2023-05-11T00:48:33.105Z,96208.34
2023-05-11T00:51:00.764Z,96197.75
2023-05-11T00:53:27.352Z,96203.25
2023-05-11T00:55:54.302Z,96204.28
2023-05-11T00:58:21.157Z,96209.16
2023-05-11T01:00:48.221Z,96201.00
2023-05-11T01:03:15.557Z,96203.09
2023-05-11T01:05:47.253Z,96200.59
2023-05-11T01:08:33.253Z,96210.28
2023-05-11T01:11:05.938Z,96213.31
2023-05-11T01:13:37.032Z,96204.34
2023-05-11T01:16:12.284Z,96208.03
2023-05-11T01:18:43.841Z,96204.72
2023-05-11T01:21:15.426Z,96201.00
2023-05-11T01:23:45.125Z,96202.22
2023-05-11T01:26:48.952Z,96202.66
2023-05-11T01:29:50.394Z,96213.50
2023-05-11T01:32:23.729Z,96198.69
2023-05-11T01:35:15.214Z,96213.41
2023-05-11T01:37:55.824Z,96212.88
2023-05-11T01:40:27.700Z,96198.94
2023-05-11T01:43:04.350Z,96225.97
2023-05-11T01:45:34.546Z,96230.00
2023-05-11T01:48:04.584Z,96229.66
2023-05-11T01:50:33.413Z,96227.44
2023-05-11T01:53:03.899Z,96230.25
2023-05-11T01:55:32.399Z,96231.88
2023-05-11T01:57:59.549Z,96241.41
2023-05-11T02:00:26.515Z,96233.91
2023-05-11T02:02:56.553Z,96218.16
2023-05-11T02:05:24.897Z,96233.47
2023-05-11T02:08:01.616Z,96243.91
2023-05-11T02:10:30.727Z,96236.97
2023-05-11T02:12:58.404Z,96217.81
2023-05-11T02:15:26.825Z,96231.88
2023-05-11T02:17:54.660Z,96225.69
2023-05-11T02:20:25.212Z,96226.75
2023-05-11T02:23:00.650Z,96224.25
2023-05-11T02:25:28.496Z,96225.06
2023-05-11T02:27:55.140Z,96219.28
2023-05-11T02:30:22.826Z,96224.25
2023-05-11T02:32:56.534Z,96238.94
2023-05-11T02:35:28.266Z,96246.69
2023-05-11T02:38:06.324Z,96246.72
2023-05-11T02:40:39.706Z,96249.34
2023-05-11T02:43:11.565Z,96246.25
2023-05-11T02:45:42.635Z,96253.66
2023-05-11T02:48:13.139Z,96255.25
2023-05-11T02:50:42.090Z,96266.09
2023-05-11T02:53:16.275Z,96256.31
2023-05-11T02:55:43.071Z,96262.63
2023-05-11T02:58:10.222Z,96271.59
2023-05-11T03:00:38.669Z,96277.53
2023-05-11T03:03:05.779Z,96273.28
2023-05-11T03:05:32.457Z,96276.91
2023-05-11T03:08:10.337Z,96287.13
2023-05-11T03:10:37.568Z,96280.22
2023-05-11T03:13:05.557Z,96288.00
2023-05-11T03:15:33.111Z,96289.19
2023-05-11T03:18:00.785Z,96278.94
2023-05-11T03:20:27.994Z,96283.47
2023-05-11T03:22:55.994Z,96271.16
2023-05-11T03:25:24.833Z,96280.59
2023-05-11T03:27:53.643Z,96279.81
2023-05-11T03:30:20.765Z,96279.00
2023-05-11T03:32:47.574Z,96281.84
2023-05-11T03:35:17.153Z,96284.06
2023-05-11T03:37:46.381Z,96288.34
2023-05-11T03:40:15.715Z,96274.88
2023-05-11T03:42:44.250Z,96283.47
2023-05-11T03:45:16.680Z,96291.16
2023-05-11T03:47:45.182Z,96282.63
2023-05-11T03:50:22.127Z,96273.22
2023-05-11T03:52:49.496Z,96280.16
2023-05-11T03:55:16.506Z,96283.22
2023-05-11T03:57:43.733Z,96283.44
2023-05-11T04:00:11.791Z,96282.78
2023-05-11T04:02:42.579Z,96282.78
2023-05-11T04:05:18.638Z,96281.13
2023-05-11T04:07:45.384Z,96279.66
2023-05-11T04:10:12.328Z,96287.25
2023-05-11T04:12:38.894Z,96293.22
2023-05-11T04:15:05.915Z,96303.41
2023-05-11T04:17:32.634Z,96305.00
2023-05-11T04:19:59.186Z,96310.72
2023-05-11T04:22:25.807Z,96312.31
2023-05-11T04:24:52.360Z,96302.53
2023-05-11T04:27:18.925Z,96308.38
2023-05-11T04:29:46.826Z,96300.03
2023-05-11T04:32:21.322Z,96300.81
2023-05-11T04:34:47.955Z,96309.78
2023-05-11T04:37:15.455Z,96316.31
2023-05-11T04:39:41.935Z,96313.75
2023-05-11T04:42:08.544Z,96310.28
2023-05-11T04:44:35.433Z,96314.91
2023-05-11T04:47:02.169Z,96311.97
2023-05-11T04:49:29.091Z,96320.09
2023-05-11T04:51:55.764Z,96320.25
2023-05-11T04:54:22.300Z,96341.31
2023-05-11T04:56:50.748Z,96347.41
2023-05-11T04:59:31.616Z,96349.22
2023-05-11T05:01:58.827Z,96379.31
2023-05-11T05:04:25.433Z,96376.97
2023-05-11T05:06:52.004Z,96377.06
2023-05-11T05:09:18.851Z,96385.75
2023-05-11T05:11:45.440Z,96384.34
2023-05-11T05:14:12.102Z,96394.50
2023-05-11T05:16:38.655Z,96386.69
2023-05-11T05:19:05.389Z,96398.56
2023-05-11T05:21:32.503Z,96407.91
2023-05-11T05:23:59.026Z,96416.88
2023-05-11T05:26:31.067Z,96418.88
2023-05-11T05:29:00.642Z,96424.56
2023-05-11T05:31:27.241Z,96418.75
2023-05-11T05:33:53.895Z,96447.75
2023-05-11T05:36:20.445Z,96450.97
2023-05-11T05:38:46.984Z,96453.56
2023-05-11T05:41:13.518Z,96481.59
2023-05-11T05:43:40.157Z,96490.38
2023-05-11T05:46:06.877Z,96493.22
2023-05-11T05:48:33.462Z,96493.78
2023-05-11T05:51:00.374Z,96500.91
2023-05-11T05:53:33.782Z,96514.19
2023-05-11T05:56:01.762Z,96516.00
2023-05-11T05:58:28.707Z,96530.44
2023-05-11T06:00:55.278Z,96542.00
2023-05-11T06:03:22.011Z,96549.91
2023-05-11T06:05:48.770Z,96549.03
2023-05-11T06:08:15.336Z,96554.69
2023-05-11T06:10:41.892Z,96566.25
2023-05-11T06:13:08.833Z,96578.69
2023-05-11T06:15:35.568Z,96583.88
2023-05-11T06:18:02.163Z,96604.06
2023-05-11T06:20:28.773Z,96622.84
2023-05-11T06:22:55.350Z,96635.09
2023-05-11T06:25:22.217Z,96656.97
2023-05-11T06:27:48.759Z,96637.69
2023-05-11T06:30:15.568Z,96666.19
2023-05-11T06:32:43.090Z,96688.78
2023-05-11T06:35:09.914Z,96694.47
2023-05-11T06:37:36.625Z,96726.63
2023-05-11T06:40:03.325Z,96738.28
2023-05-11T06:42:29.971Z,96738.44
2023-05-11T06:44:56.616Z,96768.13
2023-05-11T06:47:23.388Z,96778.97
2023-05-11T06:49:50.034Z,96798.84
2023-05-11T06:52:16.912Z,96801.47
2023-05-11T06:54:43.732Z,96815.34
2023-05-11T06:57:11.084Z,96821.66
2023-05-11T06:59:41.176Z,96826.75
2023-05-11T07:02:07.822Z,96855.31
2023-05-11T07:04:34.433Z,96859.47
2023-05-11T07:07:01.470Z,96859.78
2023-05-11T07:09:28.113Z,96873.63
2023-05-11T07:11:54.731Z,96863.38
2023-05-11T07:14:21.352Z,96888.28
2023-05-11T07:16:48.205Z,96901.59
2023-05-11T07:19:14.932Z,96918.66
2023-05-11T07:21:41.477Z,96923.97
2023-05-11T07:24:08.339Z,96907.56
2023-05-11T07:26:34.897Z,96901.97
2023-05-11T07:29:01.500Z,96903.00
2023-05-11T07:31:29.994Z,96912.47
2023-05-11T07:33:57.008Z,96924.72
2023-05-11T07:36:23.594Z,96902.84
2023-05-11T07:38:50.532Z,96925.75
2023-05-11T07:41:18.122Z,96939.56
2023-05-11T07:43:44.806Z,96951.47
2023-05-11T07:46:11.396Z,96968.59
2023-05-11T07:48:38.068Z,97000.75
2023-05-11T07:51:05.696Z,97030.97
2023-05-11T07:53:33.117Z,97046.91
2023-05-11T07:56:00.800Z,97072.59
2023-05-11T07:58:27.349Z,97105.09
2023-05-11T08:00:54.492Z,97103.09
2023-05-11T08:03:21.655Z,97095.78
2023-05-11T08:05:51.235Z,97133.44
2023-05-11T08:08:17.870Z,97133.00
2023-05-11T08:10:44.426Z,97131.63
2023-05-11T08:13:11.191Z,97211.06
2023-05-11T08:15:38.019Z,97253.44
2023-05-11T08:18:04.916Z,97253.47
2023-05-11T08:20:31.566Z,97297.97
2023-05-11T08:22:58.199Z,97320.56
2023-05-11T08:25:24.943Z,97362.19
2023-05-11T08:27:51.505Z,97360.38
2023-05-11T08:30:19.388Z,97431.72
2023-05-11T08:32:58.026Z,97427.38
2023-05-11T08:35:26.331Z,97466.41
2023-05-11T08:37:52.864Z,97483.78
2023-05-11T08:40:20.414Z,97477.06
2023-05-11T08:42:49.574Z,97518.75
2023-05-11T08:45:18.094Z,97540.81
2023-05-11T08:47:45.727Z,97534.44
2023-05-11T08:50:12.705Z,97556.28
2023-05-11T08:52:40.667Z,97589.34
2023-05-11T08:55:08.560Z,97627.72
2023-05-11T08:57:35.950Z,97573.09
2023-05-11T09:00:05.233Z,97594.28
2023-05-11T09:02:32.361Z,97644.38
2023-05-11T09:05:00.158Z,97646.47
2023-05-11T09:07:28.497Z,97673.31
2023-05-11T09:09:55.175Z,97697.25
2023-05-11T09:12:26.377Z,97690.53
2023-05-11T09:14:53.057Z,97648.06
2023-05-11T09:17:19.711Z,97681.00
2023-05-11T09:20:07.741Z,97691.31
2023-05-11T09:22:40.645Z,97695.69
2023-05-11T09:25:07.726Z,97654.75
2023-05-11T09:27:34.588Z,97650.56
2023-05-11T09:30:13.739Z,97679.38
2023-05-11T09:32:50.865Z,97703.44
2023-05-11T09:35:24.015Z,97695.25
2023-05-11T09:38:11.492Z,97680.44
2023-05-11T09:40:40.696Z,97705.72
2023-05-11T09:43:19.538Z,97723.78
2023-05-11T09:45:54.878Z,97718.44
2023-05-11T09:48:21.424Z,97705.31
2023-05-11T09:50:49.227Z,97699.78
2023-05-11T09:53:16.873Z,97692.19
2023-05-11T09:55:54.273Z,97699.53
2023-05-11T09:58:22.065Z,97651.41
2023-05-11T10:00:53.704Z,97647.22
2023-05-11T10:03:20.849Z,97629.88
2023-05-11T10:05:59.072Z,97629.44
2023-05-11T10:08:30.792Z,97613.84
2023-05-11T10:10:57.966Z,97591.09
2023-05-11T10:13:24.898Z,97560.34
2023-05-11T10:15:52.684Z,97508.88
2023-05-11T10:18:20.461Z,97489.97
2023-05-11T10:20:47.690Z,97479.97
2023-05-11T10:23:15.168Z,97472.19
2023-05-11T10:25:42.406Z,97482.41
2023-05-11T10:28:10.606Z,97509.34
2023-05-11T10:30:37.455Z,97529.56
2023-05-11T10:33:06.882Z,97546.06
2023-05-11T10:35:33.721Z,97558.75
2023-05-11T10:38:01.309Z,97613.63
2023-05-11T10:40:28.134Z,97639.88
2023-05-11T10:43:25.215Z,97666.41
2023-05-11T10:46:13.717Z,97681.88
2023-05-11T10:48:49.292Z,97657.22
2023-05-11T10:51:37.045Z,97640.28
2023-05-11T10:54:28.164Z,97631.97
2023-05-11T10:57:15.684Z,97631.63
2023-05-11T10:59:42.185Z,97637.41
2023-05-11T11:02:09.407Z,97622.59
2023-05-11T11:04:47.688Z,97611.94
2023-05-11T11:07:18.273Z,97589.44
2023-05-11T11:10:05.390Z,97622.81
2023-05-11T11:12:35.119Z,97673.78
2023-05-11T11:15:05.370Z,97693.38
2023-05-11T11:17:36.042Z,97686.28
2023-05-11T11:20:07.020Z,97695.84
2023-05-11T11:22:38.572Z,97699.72
2023-05-11T11:25:09.749Z,97712.41
2023-05-11T11:27:45.258Z,97699.09
2023-05-11T11:30:31.194Z,97715.25
2023-05-11T11:33:13.249Z,97703.41
2023-05-11T11:35:43.049Z,97719.47
2023-05-11T11:38:10.648Z,97686.75
2023-05-11T11:43:19.285Z,97725.22
2023-05-11T11:46:12.245Z,97741.81
2023-05-11T11:48:41.723Z,97718.66
2023-05-11T11:51:13.218Z,97734.41
2023-05-11T11:53:41.087Z,97705.66
2023-05-11T11:56:28.658Z,97697.59
2023-05-11T11:59:00.052Z,97677.19
2023-05-11T12:01:35.667Z,97631.34
2023-05-11T12:04:05.926Z,97607.63
2023-05-11T12:06:39.528Z,97572.00
2023-05-11T12:09:06.761Z,97512.97
2023-05-11T12:11:34.355Z,97488.31
2023-05-11T12:14:02.217Z,97466.97
2023-05-11T12:16:29.458Z,97449.00
2023-05-11T12:19:01.514Z,97423.75
2023-05-11T12:21:31.903Z,97394.22
2023-05-11T12:24:04.454Z,97366.16
2023-05-11T12:26:32.318Z,97346.03
2023-05-11T12:29:09.903Z,97335.59
2023-05-11T12:31:37.574Z,97323.69
2023-05-11T12:34:04.439Z,97319.31
2023-05-11T12:36:32.175Z,97320.75
2023-05-11T12:38:59.376Z,97308.91
2023-05-11T12:41:25.921Z,97323.31
2023-05-11T12:43:54.061Z,97314.97
2023-05-11T12:46:22.329Z,97325.72
2023-05-11T12:48:52.075Z,97336.38
2023-05-11T12:51:47.317Z,97308.81
2023-05-11T12:54:35.534Z,97304.75
2023-05-11T12:57:03.005Z,97327.00
2023-05-11T12:59:30.792Z,97303.75
2023-05-11T13:02:20.696Z,97296.22
2023-05-11T13:04:48.042Z,97308.31
2023-05-11T13:07:24.704Z,97294.88
2023-05-11T13:09:59.401Z,97299.44
2023-05-11T13:12:26.244Z,97310.25
2023-05-11T13:15:13.194Z,97303.06
2023-05-11T13:17:41.925Z,97318.31
2023-05-11T13:20:27.407Z,97306.69
2023-05-11T13:23:04.840Z,97296.97
2023-05-11T13:25:32.109Z,97318.44
2023-05-11T13:28:01.517Z,97295.91
2023-05-11T13:30:28.685Z,97287.75
2023-05-11T13:32:56.125Z,97269.75
2023-05-11T13:35:22.862Z,97259.03
2023-05-11T13:37:49.395Z,97257.16
2023-05-11T13:40:16.344Z,97235.50
2023-05-11T13:42:43.379Z,97236.81
2023-05-11T13:45:10.601Z,97239.50
2023-05-11T13:47:37.299Z,97236.34
2023-05-11T13:50:04.720Z,97202.94
2023-05-11T13:52:31.416Z,97187.59
2023-05-11T13:55:00.045Z,97155.53
2023-05-11T13:57:26.645Z,97094.66
2023-05-11T13:59:53.451Z,97071.78
2023-05-11T14:02:20.104Z,97044.00
2023-05-11T14:04:46.721Z,97015.63
2023-05-11T14:07:14.286Z,96957.66
2023-05-11T14:09:41.177Z,96905.06
2023-05-11T14:12:08.057Z,96829.84
2023-05-11T14:14:34.680Z,96745.91
2023-05-11T14:17:01.576Z,96696.81
2023-05-11T14:19:28.215Z,96657.31
2023-05-11T14:21:54.782Z,96629.03
2023-05-11T14:24:22.503Z,96579.19
2023-05-11T14:26:49.124Z,96607.81
2023-05-11T14:29:15.696Z,96599.09
2023-05-11T14:31:42.765Z,96628.94
2023-05-11T14:34:10.985Z,96672.59
2023-05-11T14:36:38.685Z,96715.06
2023-05-11T14:39:05.643Z,96776.75
2023-05-11T14:41:32.316Z,96806.13
2023-05-11T14:43:59.011Z,96802.97
2023-05-11T14:46:26.888Z,96800.38
2023-05-11T14:48:53.800Z,96878.28
2023-05-11T14:51:20.600Z,96891.59
2023-05-11T14:53:47.125Z,96884.78
2023-05-11T14:56:13.872Z,96888.38
2023-05-11T14:58:41.573Z,96889.50
2023-05-11T15:01:10.699Z,96923.97
2023-05-11T15:03:37.647Z,96910.16
2023-05-11T15:06:05.106Z,96935.84
2023-05-11T15:08:32.517Z,96918.44
2023-05-11T15:10:59.467Z,96905.13
2023-05-11T15:13:26.221Z,96917.94
2023-05-11T15:15:53.140Z,96903.72
2023-05-11T15:18:20.080Z,96906.03
2023-05-11T15:20:47.426Z,96934.09
2023-05-11T15:23:17.876Z,96935.81
2023-05-11T15:25:45.496Z,96929.13
2023-05-11T15:28:14.022Z,96921.75
2023-05-11T15:30:42.263Z,96927.81
2023-05-11T15:33:10.494Z,96927.44
2023-05-11T15:35:37.961Z,96909.50
2023-05-11T15:38:05.528Z,96897.81
2023-05-11T15:40:33.026Z,96941.44
2023-05-11T15:43:00.454Z,96953.47
2023-05-11T15:45:27.478Z,96984.84
2023-05-11T15:47:54.506Z,97017.00
2023-05-11T15:50:22.137Z,97029.75
2023-05-11T15:52:49.291Z,97025.31
2023-05-11T15:55:17.778Z,97017.47
2023-05-11T15:57:44.707Z,97001.31
2023-05-11T16:00:12.912Z,96997.59
2023-05-11T16:02:39.818Z,96987.69
2023-05-11T16:05:06.914Z,96998.78
2023-05-11T16:07:33.545Z,96989.72
2023-05-11T16:10:00.313Z,96994.03
2023-05-11T16:12:27.103Z,97003.69
2023-05-11T16:14:53.760Z,97020.75
2023-05-11T16:17:20.644Z,97009.41
2023-05-11T16:19:47.740Z,96983.16
2023-05-11T16:22:14.298Z,96957.94
2023-05-11T16:24:40.918Z,96926.38
2023-05-11T16:27:07.540Z,96885.47
2023-05-11T16:29:34.437Z,96881.41
2023-05-11T16:32:01.640Z,96886.91
2023-05-11T16:34:28.520Z,96872.66
2023-05-11T16:36:57.186Z,96865.78
2023-05-11T16:39:25.538Z,96870.22
2023-05-11T16:41:52.086Z,96877.03
2023-05-11T16:44:18.672Z,96890.66
2023-05-11T16:46:45.281Z,96936.97
2023-05-11T16:49:11.910Z,96946.59
2023-05-11T16:51:38.443Z,96944.38
2023-05-11T16:54:04.996Z,96929.13
2023-05-11T16:56:31.508Z,96940.44
2023-05-11T16:58:57.995Z,96939.72
2023-05-11T17:01:29.948Z,96954.09
2023-05-11T17:03:56.613Z,96962.41
2023-05-11T17:06:24.915Z,96935.28
2023-05-11T17:08:52.963Z,96910.16
2023-05-11T17:11:20.469Z,96887.09
2023-05-11T17:13:47.311Z,96879.69
2023-05-11T17:16:14.048Z,96860.59
2023-05-11T17:18:40.855Z,96854.94
2023-05-11T17:21:07.432Z,96852.69
2023-05-11T17:23:34.987Z,96828.16
2023-05-11T17:26:11.610Z,96811.88
2023-05-11T17:28:42.205Z,96777.25
2023-05-11T17:31:14.393Z,96725.34
2023-05-11T17:33:42.125Z,96713.69
2023-05-11T17:36:09.746Z,96704.25
2023-05-11T17:38:36.338Z,96696.06
2023-05-11T17:41:07.298Z,96664.72
2023-05-11T17:43:40.104Z,96659.88
2023-05-11T17:46:06.834Z,96678.22
2023-05-11T17:48:33.369Z,96670.81
2023-05-11T17:51:00.171Z,96655.00
2023-05-11T17:53:27.444Z,96635.13
2023-05-11T17:55:54.208Z,96616.78
2023-05-11T17:58:20.731Z,96611.22
2023-05-11T18:00:49.086Z,96599.56
2023-05-11T18:03:16.936Z,96578.03
2023-05-11T18:08:14.178Z,96523.25
2023-05-11T18:10:43.342Z,96490.44
2023-05-11T18:13:10.013Z,96472.13
2023-05-11T18:15:37.193Z,96462.03
2023-05-11T18:18:03.985Z,96434.97
2023-05-11T18:20:30.954Z,96414.03
2023-05-11T18:22:57.546Z,96399.34
2023-05-11T18:25:24.724Z,96386.28
2023-05-11T18:27:51.397Z,96369.13
2023-05-11T18:30:18.439Z,96351.53
2023-05-11T18:32:45.401Z,96313.94
2023-05-11T18:35:13.260Z,96291.53
2023-05-11T18:37:39.796Z,96243.97
2023-05-11T18:40:07.714Z,96224.09
2023-05-11T18:42:34.295Z,96228.69
2023-05-11T18:45:01.026Z,96206.63
2023-05-11T18:47:27.642Z,96207.09
2023-05-11T18:49:57.437Z,96214.03
2023-05-11T18:52:24.065Z,96199.81
2023-05-11T18:54:50.606Z,96207.69
2023-05-11T18:57:19.370Z,96200.75
2023-05-11T18:59:45.928Z,96197.97
2023-05-11T19:02:12.646Z,96202.69
2023-05-11T19:04:39.298Z,96211.69
2023-05-11T19:07:06.190Z,96204.88
2023-05-11T19:09:32.798Z,96199.75
2023-05-11T19:11:59.408Z,96230.56
2023-05-11T19:14:26.090Z,96243.59
2023-05-11T19:16:56.041Z,96238.84
2023-05-11T19:19:22.837Z,96257.09
2023-05-11T19:21:49.528Z,96246.44
2023-05-11T19:24:16.101Z,96241.47
2023-05-11T19:26:49.446Z,96236.72
2023-05-11T19:29:22.783Z,96203.69
2023-05-11T19:31:49.745Z,96217.09
2023-05-11T19:34:16.401Z,96227.72
2023-05-11T19:36:43.057Z,96244.00
2023-05-11T19:39:10.158Z,96237.75
2023-05-11T19:41:36.780Z,96259.56
2023-05-11T19:44:05.595Z,96281.78
2023-05-11T19:46:32.745Z,96298.28
2023-05-11T19:48:59.409Z,96320.94
2023-05-11T19:51:25.962Z,96330.50
2023-05-11T19:53:53.796Z,96331.31
2023-05-11T19:56:21.757Z,96350.66
2023-05-11T19:58:48.347Z,96382.56
2023-05-11T20:01:14.919Z,96391.50
2023-05-11T20:03:41.665Z,96391.19
2023-05-11T20:06:08.367Z,96392.22
2023-05-11T20:08:34.986Z,96388.06
2023-05-11T20:11:03.386Z,96394.81
2023-05-11T20:13:30.002Z,96385.34
2023-05-11T20:15:56.609Z,96383.50
2023-05-11T20:18:23.403Z,96383.63
2023-05-11T20:20:49.960Z,96375.00
2023-05-11T20:23:16.641Z,96378.84
2023-05-11T20:25:44.116Z,96375.28
2023-05-11T20:28:11.754Z,96375.28
2023-05-11T20:30:38.475Z,96390.06
2023-05-11T20:35:34.780Z,96397.06
2023-05-11T20:38:07.564Z,96410.16
2023-05-11T20:40:34.353Z,96432.91
2023-05-11T20:43:00.929Z,96440.88
2023-05-11T20:45:27.551Z,96451.47
2023-05-11T20:47:54.182Z,96470.28
2023-05-11T20:50:21.867Z,96480.09
2023-05-11T20:52:48.490Z,96479.97
2023-05-11T20:55:16.103Z,96520.91
2023-05-11T20:57:42.788Z,96523.41
2023-05-11T21:00:11.186Z,96529.09
2023-05-11T21:02:37.886Z,96534.25
2023-05-11T21:05:11.885Z,96547.53
2023-05-11T21:07:38.393Z,96535.28
2023-05-11T21:10:06.065Z,96553.25
2023-05-11T21:12:32.659Z,96572.78
2023-05-11T21:14:59.277Z,96586.44
2023-05-11T21:17:25.830Z,96583.38
2023-05-11T21:19:52.414Z,96583.59
2023-05-11T21:22:19.062Z,96585.44
2023-05-11T21:24:45.632Z,96580.94
2023-05-11T21:27:12.165Z,96575.84
2023-05-11T21:29:39.071Z,96593.56
2023-05-11T21:32:05.865Z,96595.41
2023-05-11T21:34:32.650Z,96613.31
2023-05-11T21:36:59.865Z,96614.75
2023-05-11T21:39:26.498Z,96606.63
2023-05-11T21:41:53.524Z,96592.97
2023-05-11T21:44:21.662Z,96583.19
2023-05-11T21:46:48.353Z,96585.00
2023-05-11T21:49:15.003Z,96595.22
2023-05-11T21:51:42.457Z,96608.66
2023-05-11T21:54:09.054Z,96607.41
2023-05-11T21:56:35.613Z,96617.22
2023-05-11T21:59:02.256Z,96608.84
2023-05-11T22:01:28.846Z,96615.78
2023-05-11T22:03:55.753Z,96606.22
2023-05-11T22:06:22.516Z,96608.66
2023-05-11T22:08:49.104Z,96614.38
2023-05-11T22:11:21.721Z,96614.16
2023-05-11T22:13:48.264Z,96602.16
2023-05-11T22:16:15.001Z,96600.94
2023-05-11T22:18:41.569Z,96603.16
2023-05-11T22:21:08.391Z,96606.63
2023-05-11T22:23:35.513Z,96609.88
2023-05-11T22:26:03.557Z,96609.06
2023-05-11T22:28:30.149Z,96626.63
2023-05-11T22:31:00.700Z,96619.25
2023-05-11T22:33:27.322Z,96642.88
2023-05-11T22:35:53.910Z,96661.59
2023-05-11T22:38:25.225Z,96661.41
2023-05-11T22:40:51.812Z,96679.53
2023-05-11T22:43:18.563Z,96682.34
2023-05-11T22:45:45.152Z,96685.00
2023-05-11T22:48:11.723Z,96696.19
2023-05-11T22:50:46.742Z,96680.53
2023-05-11T22:53:14.819Z,96688.06
2023-05-11T22:55:42.155Z,96678.50
2023-05-11T22:58:08.706Z,96698.44
2023-05-11T23:00:35.812Z,96698.22
2023-05-11T23:03:03.355Z,96703.94
2023-05-11T23:05:30.680Z,96691.69
2023-05-11T23:07:59.883Z,96705.75
2023-05-11T23:10:28.623Z,96687.81
2023-05-11T23:12:56.160Z,96697.00
2023-05-11T23:15:22.749Z,96700.66
2023-05-11T23:17:49.361Z,96701.03
2023-05-11T23:20:16.869Z,96688.84
2023-05-11T23:22:43.585Z,96680.31
2023-05-11T23:25:10.530Z,96688.44
2023-05-11T23:27:37.122Z,96684.38
2023-05-11T23:30:04.239Z,96694.56
2023-05-11T23:32:32.468Z,96668.06
2023-05-11T23:34:59.310Z,96684.38
2023-05-11T23:37:25.942Z,96685.63
2023-05-11T23:39:52.766Z,96675.84
2023-05-11T23:42:19.555Z,96686.84
2023-05-11T23:44:46.397Z,96687.88
2023-05-11T23:47:12.986Z,96695.81
2023-05-11T23:49:39.604Z,96687.44
2023-05-11T23:52:06.439Z,96702.28
2023-05-11T23:54:33.882Z,96716.91
2023-05-11T23:57:02.143Z,96709.19
2023-05-11T23:59:28.684Z,96707.97
